Disclaimer

Please do not use the information listed here in-flight or in-navigation, as they are not provided to us by the airports but are provided by volunteers, so they might be outdated.

Search


Regions


Airport information page

Radio informations:
Tower (TWR) - 119.9 MHz
APN - 121.7 MHz
DELIVERY - 121.9 MHz
LANGEN RADAR - 118.45 MHz

Airport informations:
Latitude: 50° 01' 35.12" N
Longitude: 008° 32' 35.25" E
Elevation: 364 feet - 111 meters
Operating hours: 24 hour operations
Operating agency: Civil government, landing fees and diplomatic clearance may be required
Timezone: UTC+1(+2DT) - Last Sunday in March to last Sunday in October
Fuel: Jet A1+, Jet A1 with icing inhibitor.

JP-8, SemiKeroscene MIL Spec T-83133, without icing inhibitor

100/130 MIL Spec, low lead, aviation gasoline (BLUE)

Runway information:
07R/25L - 13123 x 148 feet< - >4000 x 45 meters
07L/25R - 13123 x 197 feet< - >4000 x 60 meters
18/36 - 13123 x 148 feet< - >4000 x 45 meters

Recent METARs:
EDDF 170720Z 02008KT CAVOK 02/M00 Q1030 NOSIG
EDDF 170750Z 02012KT CAVOK 04/M00 Q1030 NOSIG
EDDF 170820Z 02011KT CAVOK 05/00 Q1030 NOSIG

Airport on the map: